createdAt,value
2023-04-09T00:00:50.477Z,12.98
2023-04-09T00:02:52.358Z,17.17
2023-04-09T00:04:54.329Z,17.17
2023-04-09T00:06:56.149Z,15.25
2023-04-09T00:08:58.149Z,16.83
2023-04-09T00:11:00.533Z,17.48
2023-04-09T00:13:02.455Z,14.70
2023-04-09T00:15:04.641Z,17.23
2023-04-09T00:17:06.565Z,13.73
2023-04-09T00:19:08.430Z,14.20
2023-04-09T00:21:10.317Z,17.80
2023-04-09T00:23:13.076Z,15.75
2023-04-09T00:25:16.022Z,20.70
2023-04-09T00:27:17.874Z,15.48
2023-04-09T00:29:19.824Z,14.13
2023-04-09T00:31:21.750Z,13.77
2023-04-09T00:33:23.869Z,15.13
2023-04-09T00:37:27.877Z,14.57
2023-04-09T00:39:29.936Z,14.90
2023-04-09T00:43:34.661Z,16.08
2023-04-09T00:45:36.622Z,16.58
2023-04-09T00:49:40.933Z,17.77
2023-04-09T00:51:44.108Z,15.55
2023-04-09T00:53:47.876Z,14.43
2023-04-09T00:55:49.752Z,20.05
2023-04-09T00:57:51.632Z,15.82
2023-04-09T00:59:53.526Z,18.63
2023-04-09T01:01:55.827Z,14.82
2023-04-09T01:03:58.106Z,16.58
2023-04-09T01:06:23.653Z,13.80
2023-04-09T01:08:55.017Z,16.83
2023-04-09T01:11:23.525Z,15.38
2023-04-09T01:13:46.366Z,15.02
2023-04-09T01:15:59.391Z,13.23
2023-04-09T01:18:07.513Z,17.48
2023-04-09T01:20:22.578Z,12.88
2023-04-09T01:22:46.374Z,14.10
2023-04-09T01:25:04.868Z,16.38
2023-04-09T01:27:08.363Z,16.83
2023-04-09T01:29:11.286Z,15.90
2023-04-09T01:31:17.320Z,14.38
2023-04-09T01:33:20.821Z,14.68
2023-04-09T01:35:23.227Z,18.02
2023-04-09T01:37:26.322Z,16.27
2023-04-09T01:39:28.729Z,16.33
2023-04-09T01:41:33.496Z,18.33
2023-04-09T01:43:36.860Z,17.98
2023-04-09T01:45:39.591Z,20.33
2023-04-09T01:47:41.854Z,19.20
2023-04-09T01:49:44.892Z,19.23
2023-04-09T01:51:48.415Z,19.42
2023-04-09T01:53:50.760Z,16.85
2023-04-09T01:55:52.708Z,21.52
2023-04-09T01:57:54.599Z,18.15
2023-04-09T01:59:56.590Z,23.95
2023-04-09T02:02:05.472Z,23.52
2023-04-09T02:04:16.502Z,22.98
2023-04-09T02:06:48.537Z,22.20
2023-04-09T02:08:52.847Z,23.80
2023-04-09T02:10:58.949Z,25.45
2023-04-09T02:13:03.284Z,24.98
2023-04-09T02:15:07.396Z,25.98
2023-04-09T02:17:09.450Z,28.83
2023-04-09T02:21:13.924Z,23.55
2023-04-09T02:23:18.787Z,25.02
2023-04-09T02:25:21.514Z,23.55
2023-04-09T02:27:23.396Z,25.00
2023-04-09T02:29:25.247Z,25.05
2023-04-09T02:31:28.408Z,23.75
2023-04-09T02:33:30.528Z,23.98
2023-04-09T02:37:34.670Z,23.73
2023-04-09T02:39:36.512Z,20.77
2023-04-09T02:41:38.352Z,19.73
2023-04-09T02:43:40.225Z,21.85
2023-04-09T02:45:42.202Z,27.17
2023-04-09T02:47:44.264Z,25.75
2023-04-09T02:51:49.497Z,25.85
2023-04-09T02:53:51.379Z,23.15
2023-04-09T02:55:53.279Z,24.92
2023-04-09T02:57:55.156Z,28.13
2023-04-09T02:59:57.009Z,24.38
2023-04-09T03:01:58.949Z,25.52
2023-04-09T03:06:03.694Z,33.83
2023-04-09T03:08:05.830Z,29.92
2023-04-09T03:10:08.099Z,29.42
2023-04-09T03:12:09.927Z,26.10
2023-04-09T03:14:11.780Z,30.25
2023-04-09T03:16:13.874Z,28.27
2023-04-09T03:20:17.713Z,34.90
2023-04-09T03:22:19.682Z,27.58
2023-04-09T03:24:21.696Z,29.27
2023-04-09T03:28:25.326Z,28.23
2023-04-09T03:30:27.178Z,36.58
2023-04-09T03:32:29.185Z,31.02
2023-04-09T03:36:33.149Z,36.08
2023-04-09T03:40:36.902Z,29.83
2023-04-09T03:44:40.456Z,35.97
2023-04-09T03:46:42.464Z,39.05
2023-04-09T03:48:44.931Z,37.45
2023-04-09T03:50:47.101Z,37.20
2023-04-09T03:52:49.044Z,36.28
2023-04-09T03:54:50.886Z,36.20
2023-04-09T03:56:52.726Z,34.30
2023-04-09T03:58:54.984Z,35.05
2023-04-09T04:00:57.069Z,39.90
2023-04-09T04:02:59.098Z,40.63
2023-04-09T04:07:05.864Z,41.17
2023-04-09T04:09:07.693Z,42.35
2023-04-09T04:11:09.562Z,35.20
2023-04-09T04:13:11.518Z,37.55
2023-04-09T04:15:13.532Z,41.92
2023-04-09T04:19:17.434Z,38.28
2023-04-09T04:21:19.313Z,33.47
2023-04-09T04:23:21.225Z,39.08
2023-04-09T04:25:23.058Z,35.92
2023-04-09T04:27:24.902Z,35.25
2023-04-09T04:29:28.539Z,37.55
2023-04-09T04:31:30.527Z,36.30
2023-04-09T04:33:32.394Z,34.88
2023-04-09T04:35:34.259Z,33.75
2023-04-09T04:37:36.129Z,38.95
2023-04-09T04:39:38.044Z,38.63
2023-04-09T04:41:39.932Z,37.25
2023-04-09T04:43:41.749Z,32.50
2023-04-09T04:45:43.585Z,34.10
2023-04-09T04:47:45.840Z,31.98
2023-04-09T04:49:47.749Z,36.67
2023-04-09T04:51:49.648Z,32.85
2023-04-09T04:53:51.521Z,33.25
2023-04-09T04:55:53.842Z,35.58
2023-04-09T04:57:55.811Z,32.40
2023-04-09T04:59:57.747Z,32.63
2023-04-09T05:01:59.781Z,32.53
2023-04-09T05:06:05.354Z,28.70
2023-04-09T05:10:09.587Z,28.23
2023-04-09T05:12:11.521Z,26.90
2023-04-09T05:14:13.358Z,30.45
2023-04-09T05:16:19.700Z,29.05
2023-04-09T05:18:21.731Z,31.33
2023-04-09T05:20:23.611Z,39.28
2023-04-09T05:22:25.542Z,37.60
2023-04-09T05:24:27.457Z,30.63
2023-04-09T05:26:29.899Z,33.78
2023-04-09T05:28:33.234Z,36.85
2023-04-09T05:30:35.418Z,39.42
2023-04-09T05:32:37.541Z,37.00
2023-04-09T05:36:41.330Z,36.85
2023-04-09T05:42:47.785Z,38.42
2023-04-09T05:44:49.627Z,31.95
2023-04-09T05:46:51.492Z,31.75
2023-04-09T05:48:53.686Z,34.80
2023-04-09T05:50:56.058Z,36.67
2023-04-09T05:52:58.009Z,30.73
2023-04-09T05:54:59.935Z,35.25
2023-04-09T05:57:01.772Z,30.65
2023-04-09T05:59:03.592Z,31.70
2023-04-09T06:01:05.507Z,32.42
2023-04-09T06:03:07.470Z,30.92
2023-04-09T06:07:11.541Z,30.10
2023-04-09T06:11:15.652Z,32.35
2023-04-09T06:15:19.440Z,29.17
2023-04-09T06:17:21.451Z,32.88
2023-04-09T06:19:23.780Z,29.85
2023-04-09T06:21:25.596Z,35.47
2023-04-09T06:23:27.449Z,40.45
2023-04-09T06:25:29.327Z,36.65
2023-04-09T06:27:31.484Z,33.08
2023-04-09T06:29:33.580Z,31.63
2023-04-09T06:33:37.718Z,27.30
2023-04-09T06:35:39.595Z,27.80
2023-04-09T06:37:41.646Z,27.27
2023-04-09T06:42:04.024Z,26.92
2023-04-09T06:44:06.004Z,26.60
2023-04-09T06:46:08.989Z,27.92
2023-04-09T06:48:11.612Z,28.08
2023-04-09T06:50:13.628Z,26.15
2023-04-09T06:54:17.321Z,24.77
2023-04-09T06:56:19.207Z,28.33
2023-04-09T06:58:21.258Z,22.45
2023-04-09T07:00:23.224Z,25.02
2023-04-09T07:02:25.341Z,21.95
2023-04-09T07:04:27.533Z,22.70
2023-04-09T07:08:31.327Z,27.27
2023-04-09T07:10:33.169Z,24.92
2023-04-09T07:12:37.770Z,18.25
2023-04-09T07:14:39.773Z,19.33
2023-04-09T07:16:41.616Z,23.58
2023-04-09T07:18:43.619Z,27.58
2023-04-09T07:20:45.754Z,26.98
2023-04-09T07:24:58.797Z,22.77
2023-04-09T07:27:04.339Z,23.00
2023-04-09T07:29:06.328Z,24.63
2023-04-09T07:31:08.176Z,22.88
2023-04-09T07:33:10.412Z,20.58
2023-04-09T07:35:12.500Z,25.15
2023-04-09T07:37:14.371Z,18.88
2023-04-09T07:39:16.324Z,21.88
2023-04-09T07:41:18.245Z,17.55
2023-04-09T07:43:22.513Z,19.75
2023-04-09T07:45:24.601Z,18.08
2023-04-09T07:47:26.995Z,17.88
2023-04-09T07:49:28.962Z,20.50
2023-04-09T07:51:31.432Z,18.50
2023-04-09T07:53:33.265Z,19.10
2023-04-09T07:55:35.110Z,17.85
2023-04-09T07:57:37.113Z,21.20
2023-04-09T07:59:38.952Z,19.33
2023-04-09T08:01:41.246Z,19.80
2023-04-09T08:03:43.304Z,18.33
2023-04-09T08:07:47.449Z,17.88
2023-04-09T08:09:49.333Z,18.80
2023-04-09T08:11:51.544Z,18.13
2023-04-09T08:13:53.780Z,17.42
2023-04-09T08:15:55.824Z,17.58
2023-04-09T08:19:59.588Z,18.50
2023-04-09T08:22:01.977Z,17.73
2023-04-09T08:24:05.684Z,17.75
2023-04-09T08:26:07.583Z,16.65
2023-04-09T08:28:09.738Z,15.73
2023-04-09T08:30:12.148Z,18.58
2023-04-09T08:32:14.248Z,18.23
2023-04-09T08:34:17.559Z,17.83
2023-04-09T08:36:20.543Z,16.58
2023-04-09T08:38:22.498Z,17.63
2023-04-09T08:40:24.445Z,18.40
2023-04-09T08:42:26.978Z,16.25
2023-04-09T08:44:29.752Z,15.82
2023-04-09T08:46:31.669Z,16.05
2023-04-09T08:48:33.639Z,14.20
2023-04-09T08:52:38.412Z,15.65
2023-04-09T08:54:40.403Z,16.02
2023-04-09T08:56:42.336Z,15.75
2023-04-09T08:58:46.585Z,16.27
2023-04-09T09:00:48.430Z,21.88
2023-04-09T09:03:17.582Z,15.80
2023-04-09T09:05:36.539Z,15.40
2023-04-09T09:07:54.693Z,14.75
2023-04-09T09:10:03.320Z,13.38
2023-04-09T09:12:05.223Z,19.30
2023-04-09T09:14:07.061Z,15.55
2023-04-09T09:16:14.448Z,15.73
2023-04-09T09:18:17.547Z,14.45
2023-04-09T09:20:21.052Z,14.60
2023-04-09T09:22:22.925Z,13.48
2023-04-09T09:24:24.940Z,12.55
2023-04-09T09:26:29.337Z,13.98
2023-04-09T09:28:36.127Z,15.50
2023-04-09T09:30:39.944Z,16.25
2023-04-09T09:32:42.601Z,13.70
2023-04-09T09:34:58.644Z,14.07
2023-04-09T09:37:00.612Z,12.25
2023-04-09T09:39:03.865Z,15.55
2023-04-09T09:41:17.920Z,12.77
2023-04-09T09:43:19.864Z,13.88
2023-04-09T09:45:22.131Z,15.80
2023-04-09T09:47:25.360Z,12.00
2023-04-09T09:49:27.395Z,12.27
2023-04-09T09:51:31.364Z,10.43
2023-04-09T09:53:36.547Z,12.63
2023-04-09T09:55:40.559Z,14.70
2023-04-09T09:57:44.906Z,9.60
2023-04-09T10:00:14.141Z,9.65
2023-04-09T10:02:21.173Z,10.95
2023-04-09T10:04:25.256Z,15.48
2023-04-09T10:06:28.048Z,11.15
2023-04-09T10:08:33.468Z,10.63
2023-04-09T10:10:36.606Z,10.93
2023-04-09T10:12:41.816Z,11.48
2023-04-09T10:14:45.264Z,13.07
2023-04-09T10:16:47.277Z,11.60
2023-04-09T10:21:05.845Z,14.73
2023-04-09T10:23:32.662Z,11.77
2023-04-09T10:25:34.610Z,12.50
2023-04-09T10:27:37.025Z,11.48
2023-04-09T10:29:49.969Z,12.63
2023-04-09T10:32:03.243Z,11.55
2023-04-09T10:34:05.263Z,14.60
2023-04-09T10:36:12.365Z,13.40
2023-04-09T10:38:15.380Z,10.30
2023-04-09T10:40:21.817Z,11.45
2023-04-09T10:42:33.036Z,10.40
2023-04-09T10:44:36.114Z,14.05
2023-04-09T10:46:38.071Z,10.70
2023-04-09T10:48:40.061Z,10.45
2023-04-09T10:50:45.260Z,12.02
2023-04-09T10:52:51.785Z,10.02
2023-04-09T10:54:54.746Z,14.10
2023-04-09T10:57:26.496Z,8.85
2023-04-09T10:59:28.585Z,8.30
2023-04-09T11:03:40.328Z,10.05
2023-04-09T11:05:46.669Z,9.27
2023-04-09T11:07:54.610Z,9.40
2023-04-09T11:09:56.497Z,8.00
2023-04-09T11:11:58.631Z,12.10
2023-04-09T11:14:01.758Z,10.13
2023-04-09T11:16:07.132Z,8.63
2023-04-09T11:18:13.919Z,9.05
2023-04-09T11:20:21.563Z,7.95
2023-04-09T11:22:23.510Z,8.10
2023-04-09T11:24:27.094Z,7.35
2023-04-09T11:26:52.733Z,7.45
2023-04-09T11:28:58.435Z,9.27
2023-04-09T11:31:05.015Z,10.65
2023-04-09T11:33:08.611Z,9.05
2023-04-09T11:35:16.821Z,12.85
2023-04-09T11:37:19.162Z,13.23
2023-04-09T11:39:21.113Z,11.93
2023-04-09T11:41:38.462Z,11.60
2023-04-09T11:43:40.902Z,9.70
2023-04-09T11:45:43.289Z,11.00
2023-04-09T11:47:47.292Z,11.02
2023-04-09T11:49:49.323Z,9.00
2023-04-09T11:51:51.516Z,11.35
2023-04-09T11:53:53.946Z,14.48
2023-04-09T11:55:56.369Z,11.23
2023-04-09T11:58:01.358Z,10.40
2023-04-09T12:00:12.266Z,11.68
2023-04-09T12:02:18.921Z,10.02
2023-04-09T12:04:22.594Z,10.95
2023-04-09T12:06:27.436Z,16.45
2023-04-09T12:08:29.522Z,11.43
2023-04-09T12:12:42.092Z,9.75
2023-04-09T12:14:47.404Z,10.15
2023-04-09T12:16:52.791Z,11.15
2023-04-09T12:18:55.886Z,12.88
2023-04-09T12:20:57.786Z,11.93
2023-04-09T12:23:01.314Z,14.07
2023-04-09T12:25:03.245Z,13.00
2023-04-09T12:27:05.174Z,11.40
2023-04-09T12:29:07.027Z,11.88
2023-04-09T12:31:12.039Z,11.60
2023-04-09T12:33:13.978Z,11.98
2023-04-09T12:35:16.041Z,11.57
2023-04-09T12:39:20.994Z,12.37
2023-04-09T12:41:22.959Z,14.15
2023-04-09T12:43:24.910Z,12.07
2023-04-09T12:45:28.030Z,10.80
2023-04-09T12:47:29.997Z,10.60
2023-04-09T12:49:33.235Z,10.68
2023-04-09T12:51:35.507Z,11.05
2023-04-09T12:53:37.486Z,15.80
2023-04-09T12:55:42.221Z,12.13
2023-04-09T12:57:47.402Z,11.02
2023-04-09T12:59:49.302Z,10.73
2023-04-09T13:01:51.684Z,12.35
2023-04-09T13:03:53.944Z,11.23
2023-04-09T13:05:56.644Z,11.02
2023-04-09T13:07:58.866Z,15.45
2023-04-09T13:10:00.856Z,12.73
2023-04-09T13:12:02.919Z,13.73
2023-04-09T13:16:07.632Z,12.27
2023-04-09T13:18:09.986Z,13.55
2023-04-09T13:20:12.207Z,11.88
2023-04-09T13:24:17.203Z,11.48
2023-04-09T13:26:19.086Z,13.80
2023-04-09T13:28:20.964Z,14.45
2023-04-09T13:30:23.534Z,16.02
2023-04-09T13:32:25.608Z,14.32
2023-04-09T13:36:32.621Z,15.73
2023-04-09T13:38:34.447Z,17.45
2023-04-09T13:40:36.362Z,16.55
2023-04-09T13:42:38.536Z,17.02
2023-04-09T13:44:42.383Z,21.23
2023-04-09T13:46:44.559Z,19.17
2023-04-09T13:48:46.767Z,17.75
2023-04-09T13:50:48.751Z,22.83
2023-04-09T13:52:50.652Z,17.33
2023-04-09T13:54:53.387Z,17.35
2023-04-09T13:56:55.479Z,18.95
2023-04-09T14:00:59.558Z,19.35
2023-04-09T14:03:03.546Z,22.70
2023-04-09T14:05:06.142Z,22.35
2023-04-09T14:07:08.416Z,25.05
2023-04-09T14:09:10.928Z,26.45
2023-04-09T14:11:15.260Z,23.80
2023-04-09T14:13:17.211Z,25.48
2023-04-09T14:15:19.188Z,20.85
2023-04-09T14:17:21.136Z,20.73
2023-04-09T14:19:23.392Z,18.23
2023-04-09T14:21:26.916Z,16.50
2023-04-09T14:23:28.989Z,18.30
2023-04-09T14:25:30.960Z,16.95
2023-04-09T14:27:33.251Z,17.55
2023-04-09T14:29:35.400Z,18.83
2023-04-09T14:33:39.098Z,19.75
2023-04-09T14:35:41.104Z,16.70
2023-04-09T14:39:44.705Z,17.43
2023-04-09T14:41:46.609Z,18.02
2023-04-09T14:43:48.465Z,18.02
2023-04-09T14:45:50.638Z,19.48
2023-04-09T14:47:52.736Z,16.30
2023-04-09T14:51:56.587Z,15.00
2023-04-09T14:56:00.289Z,15.80
2023-04-09T14:58:04.725Z,17.52
2023-04-09T15:00:13.608Z,18.95
2023-04-09T15:02:15.670Z,20.80
2023-04-09T15:06:19.671Z,21.50
2023-04-09T15:10:23.518Z,19.55
2023-04-09T15:12:28.330Z,14.82
2023-04-09T15:14:31.325Z,14.27
2023-04-09T15:16:38.250Z,15.07
2023-04-09T15:18:40.562Z,14.75
2023-04-09T15:20:43.586Z,12.90
2023-04-09T15:22:45.604Z,12.63
2023-04-09T15:24:47.768Z,12.93
2023-04-09T15:28:53.682Z,14.43
2023-04-09T15:30:55.851Z,14.48
2023-04-09T15:32:58.136Z,16.65
2023-04-09T15:35:00.837Z,14.50
2023-04-09T15:37:02.800Z,15.35
2023-04-09T15:39:05.026Z,23.40
2023-04-09T15:41:06.925Z,16.23
2023-04-09T15:43:08.792Z,15.57
2023-04-09T15:45:11.029Z,13.63
2023-04-09T15:47:12.878Z,12.23
2023-04-09T15:49:14.897Z,10.35
2023-04-09T15:51:16.903Z,10.48
2023-04-09T15:53:19.736Z,11.38
2023-04-09T15:55:23.073Z,9.73
2023-04-09T15:57:25.082Z,8.55
2023-04-09T15:59:26.970Z,10.50
2023-04-09T16:01:28.915Z,8.65
2023-04-09T16:03:35.400Z,10.93
2023-04-09T16:05:37.282Z,12.60
2023-04-09T16:07:39.872Z,11.43
2023-04-09T16:09:41.792Z,8.63
2023-04-09T16:11:43.694Z,12.85
2023-04-09T16:13:46.220Z,10.15
2023-04-09T16:15:49.400Z,13.82
2023-04-09T16:17:51.340Z,9.23
2023-04-09T16:19:53.357Z,10.40
2023-04-09T16:21:55.291Z,11.18
2023-04-09T16:23:57.173Z,10.82
2023-04-09T16:25:59.288Z,9.65
2023-04-09T16:30:03.654Z,13.23
2023-04-09T16:32:06.304Z,11.95
2023-04-09T16:34:08.437Z,17.02
2023-04-09T16:36:10.490Z,7.63
2023-04-09T16:40:14.599Z,9.55
2023-04-09T16:42:16.698Z,11.30
2023-04-09T16:46:21.570Z,9.93
2023-04-09T16:50:26.319Z,11.10
2023-04-09T16:52:29.358Z,10.32
2023-04-09T16:54:31.214Z,10.30
2023-04-09T16:56:33.307Z,13.27
2023-04-09T17:00:37.182Z,12.10
2023-04-09T17:04:41.957Z,13.38
2023-04-09T17:06:43.894Z,14.50
2023-04-09T17:08:46.324Z,16.77
2023-04-09T17:10:48.147Z,17.38
2023-04-09T17:12:50.658Z,17.25
2023-04-09T17:14:52.539Z,20.65
2023-04-09T17:16:54.566Z,24.63
2023-04-09T17:20:59.376Z,34.33
2023-04-09T17:23:01.669Z,36.38
2023-04-09T17:25:04.797Z,38.97
2023-04-09T17:27:07.467Z,37.13
2023-04-09T17:29:09.395Z,40.70
2023-04-09T17:31:16.131Z,32.60
2023-04-09T17:33:18.232Z,29.85
2023-04-09T17:35:20.305Z,27.95
2023-04-09T17:39:25.610Z,20.13
2023-04-09T17:41:27.780Z,47.97
2023-04-09T17:43:29.665Z,41.53
2023-04-09T17:45:31.579Z,27.23
2023-04-09T17:47:33.609Z,21.27
2023-04-09T17:51:37.741Z,27.90
2023-04-09T17:53:39.612Z,30.92
2023-04-09T17:55:47.204Z,31.92
2023-04-09T17:57:49.256Z,36.30
2023-04-09T17:59:51.134Z,40.47
2023-04-09T18:01:55.086Z,37.47
2023-04-09T18:03:57.407Z,37.28
2023-04-09T18:06:00.698Z,41.53
2023-04-09T18:08:02.558Z,31.85
2023-04-09T18:10:05.574Z,29.73
2023-04-09T18:12:07.464Z,29.67
2023-04-09T18:14:09.780Z,25.70
2023-04-09T18:16:12.670Z,25.52
2023-04-09T18:18:14.941Z,30.58
2023-04-09T18:22:18.721Z,33.05
2023-04-09T18:24:20.974Z,30.95
2023-04-09T18:26:23.038Z,35.28
2023-04-09T18:30:26.756Z,35.57
2023-04-09T18:32:29.268Z,38.53
2023-04-09T18:34:31.521Z,38.85
2023-04-09T18:36:33.622Z,38.42
2023-04-09T18:40:43.814Z,33.90
2023-04-09T18:42:52.886Z,31.20
2023-04-09T18:44:54.830Z,32.05
2023-04-09T18:46:57.023Z,34.08
2023-04-09T18:48:59.089Z,31.45
2023-04-09T18:51:03.122Z,26.70
2023-04-09T18:53:06.071Z,25.92
2023-04-09T18:55:08.899Z,27.08
2023-04-09T18:57:11.310Z,27.83
2023-04-09T18:59:13.397Z,29.25
2023-04-09T19:03:18.279Z,27.92
2023-04-09T19:05:22.368Z,31.90
2023-04-09T19:07:24.427Z,32.67
2023-04-09T19:11:29.296Z,37.17
2023-04-09T19:15:33.111Z,31.65
2023-04-09T19:17:35.041Z,32.55
2023-04-09T19:19:37.329Z,27.27
2023-04-09T19:21:39.853Z,26.25
2023-04-09T19:23:41.742Z,26.50
2023-04-09T19:25:43.614Z,30.88
2023-04-09T19:27:46.195Z,28.35
2023-04-09T19:29:48.150Z,26.33
2023-04-09T19:31:50.454Z,28.60
2023-04-09T19:33:52.462Z,26.77
2023-04-09T19:35:56.571Z,28.00
2023-04-09T19:37:58.755Z,26.30
2023-04-09T19:40:06.783Z,27.92
2023-04-09T19:42:08.661Z,27.42
2023-04-09T19:44:10.624Z,30.25
2023-04-09T19:46:13.214Z,27.40
2023-04-09T19:48:15.958Z,28.77
2023-04-09T19:50:18.084Z,26.35
2023-04-09T19:52:20.439Z,26.77
2023-04-09T19:54:22.374Z,26.42
2023-04-09T19:56:25.315Z,26.52
2023-04-09T19:58:27.465Z,24.85
2023-04-09T20:02:32.004Z,23.45
2023-04-09T20:04:34.253Z,20.92
2023-04-09T20:08:38.249Z,23.80
2023-04-09T20:10:41.983Z,20.55
2023-04-09T20:12:47.724Z,19.98
2023-04-09T20:14:50.057Z,24.17
2023-04-09T20:16:51.989Z,22.80
2023-04-09T20:18:54.156Z,25.35
2023-04-09T20:20:56.214Z,24.80
2023-04-09T20:22:58.379Z,25.10
2023-04-09T20:25:00.835Z,24.15
2023-04-09T20:27:04.218Z,23.63
2023-04-09T20:29:07.500Z,24.95
2023-04-09T20:31:09.363Z,26.00
2023-04-09T20:33:11.735Z,26.45
2023-04-09T20:35:14.615Z,24.83
2023-04-09T20:37:16.576Z,24.42
2023-04-09T20:39:18.421Z,24.98
2023-04-09T20:41:20.349Z,28.67
2023-04-09T20:43:22.369Z,23.90
2023-04-09T20:45:24.214Z,21.52
2023-04-09T20:47:27.149Z,23.30
2023-04-09T20:49:29.128Z,22.50
2023-04-09T20:51:30.968Z,22.17
2023-04-09T20:53:32.957Z,21.73
2023-04-09T20:57:37.584Z,21.75
2023-04-09T20:59:39.445Z,22.48
2023-04-09T21:01:41.409Z,26.95
2023-04-09T21:03:43.478Z,23.15
2023-04-09T21:07:47.407Z,19.58
2023-04-09T21:09:49.523Z,21.15
2023-04-09T21:11:51.444Z,25.25
2023-04-09T21:13:55.311Z,23.15
2023-04-09T21:15:58.172Z,22.55
2023-04-09T21:18:00.211Z,26.95
2023-04-09T21:22:03.958Z,23.48
2023-04-09T21:24:06.017Z,29.75
2023-04-09T21:28:11.618Z,23.23
2023-04-09T21:30:13.499Z,21.17
2023-04-09T21:32:15.679Z,21.25
2023-04-09T21:34:17.603Z,22.65
2023-04-09T21:36:19.571Z,22.92
2023-04-09T21:40:23.899Z,25.90
2023-04-09T21:42:25.768Z,23.67
2023-04-09T21:44:27.653Z,22.77
2023-04-09T21:46:29.830Z,23.42
2023-04-09T21:48:31.764Z,23.63
2023-04-09T21:50:33.666Z,22.25
2023-04-09T21:52:35.628Z,22.38
2023-04-09T21:54:37.836Z,17.83
2023-04-09T21:56:39.931Z,18.60
2023-04-09T22:00:43.535Z,16.57
2023-04-09T22:02:46.311Z,18.88
2023-04-09T22:04:48.340Z,19.00
2023-04-09T22:06:50.613Z,19.45
2023-04-09T22:08:56.001Z,21.63
2023-04-09T22:10:58.407Z,18.70
2023-04-09T22:13:00.345Z,17.25
2023-04-09T22:15:03.852Z,19.05
2023-04-09T22:17:06.225Z,16.50
2023-04-09T22:19:08.600Z,16.73
2023-04-09T22:21:16.583Z,17.67
2023-04-09T22:23:18.450Z,15.23
2023-04-09T22:25:20.433Z,17.58
2023-04-09T22:27:22.341Z,17.00
2023-04-09T22:29:25.605Z,17.55
2023-04-09T22:31:27.889Z,14.70
2023-04-09T22:33:29.835Z,18.00
2023-04-09T22:35:32.217Z,18.05
2023-04-09T22:37:34.130Z,19.40
2023-04-09T22:39:36.486Z,15.93
2023-04-09T22:41:38.776Z,19.52
2023-04-09T22:43:40.626Z,16.17
2023-04-09T22:45:42.593Z,15.85
2023-04-09T22:47:44.491Z,17.02
2023-04-09T22:49:46.781Z,14.88
2023-04-09T22:51:48.654Z,15.40
2023-04-09T22:53:50.515Z,16.42
2023-04-09T22:55:54.884Z,15.93
2023-04-09T22:57:58.065Z,17.45
2023-04-09T22:59:59.896Z,13.27
2023-04-09T23:02:01.877Z,15.93
2023-04-09T23:06:06.067Z,16.23
2023-04-09T23:08:07.946Z,15.88
2023-04-09T23:10:14.149Z,21.73
2023-04-09T23:12:16.049Z,15.52
2023-04-09T23:14:17.911Z,17.17
2023-04-09T23:16:20.032Z,19.02
2023-04-09T23:20:26.360Z,19.35
2023-04-09T23:22:28.269Z,18.67
2023-04-09T23:24:30.415Z,17.58
2023-04-09T23:26:32.769Z,18.60
2023-04-09T23:28:34.635Z,17.55
2023-04-09T23:30:37.086Z,16.08
2023-04-09T23:32:38.945Z,17.13
2023-04-09T23:34:40.846Z,18.20
2023-04-09T23:36:42.744Z,16.55
2023-04-09T23:38:47.006Z,16.52
2023-04-09T23:40:49.388Z,15.45
2023-04-09T23:42:51.317Z,16.42
2023-04-09T23:44:53.264Z,16.60
2023-04-09T23:46:55.733Z,19.25
2023-04-09T23:48:57.613Z,19.17
2023-04-09T23:50:59.457Z,17.95
2023-04-09T23:53:03.771Z,19.88
2023-04-09T23:55:09.592Z,16.77
2023-04-09T23:57:11.454Z,17.90
2023-04-09T23:59:13.420Z,18.33
